createdAt,value
2018-09-19T00:00:06.226Z,62.53
2018-09-19T00:02:34.609Z,71.93
2018-09-19T00:05:02.995Z,64.00
2018-09-19T00:07:31.396Z,80.10
2018-09-19T00:09:59.782Z,71.43
2018-09-19T00:12:28.258Z,85.87
2018-09-19T00:14:56.759Z,85.20
2018-09-19T00:17:25.114Z,74.80
2018-09-19T00:19:53.632Z,70.43
2018-09-19T00:22:22.531Z,68.23
2018-09-19T00:24:51.009Z,67.60
2018-09-19T00:27:19.449Z,62.30
2018-09-19T00:29:47.817Z,58.60
2018-09-19T00:32:16.171Z,58.90
2018-09-19T00:34:44.614Z,53.77
2018-09-19T00:37:12.997Z,55.27
2018-09-19T00:39:41.513Z,51.43
2018-09-19T00:42:10.004Z,48.87
2018-09-19T00:44:38.423Z,47.23
2018-09-19T00:47:06.879Z,47.50
2018-09-19T00:49:35.271Z,47.40
2018-09-19T00:52:03.754Z,43.60
2018-09-19T00:54:32.126Z,39.03
2018-09-19T00:57:00.600Z,40.23
2018-09-19T00:59:29.091Z,38.87
2018-09-19T01:01:57.480Z,39.17
2018-09-19T01:04:25.901Z,40.13
2018-09-19T01:06:54.284Z,34.50
2018-09-19T01:09:22.673Z,36.33
2018-09-19T01:11:51.214Z,37.87
2018-09-19T01:14:19.683Z,34.50
2018-09-19T01:16:48.069Z,33.80
2018-09-19T01:19:16.438Z,32.33
2018-09-19T01:21:44.828Z,33.30
2018-09-19T01:24:13.215Z,31.97
2018-09-19T01:26:41.616Z,27.60
2018-09-19T01:29:09.986Z,32.40
2018-09-19T01:31:38.405Z,27.77
2018-09-19T01:34:06.776Z,25.20
2018-09-19T01:36:35.425Z,26.33
2018-09-19T01:39:05.071Z,23.97
2018-09-19T01:41:33.439Z,22.87
2018-09-19T01:44:01.913Z,22.30
2018-09-19T01:46:30.326Z,27.83
2018-09-19T01:48:58.708Z,19.60
2018-09-19T01:51:27.112Z,21.37
2018-09-19T01:53:55.519Z,19.60
2018-09-19T01:56:23.973Z,22.73
2018-09-19T01:58:52.367Z,20.93
2018-09-19T02:01:20.743Z,20.50
2018-09-19T02:03:49.125Z,17.67
2018-09-19T02:06:17.617Z,18.67
2018-09-19T02:08:46.027Z,16.77
2018-09-19T02:11:14.404Z,21.97
2018-09-19T02:13:42.774Z,16.70
2018-09-19T02:16:11.179Z,16.80
2018-09-19T02:18:39.570Z,13.93
2018-09-19T02:21:08.000Z,18.53
2018-09-19T02:23:36.501Z,13.50
2018-09-19T02:26:05.137Z,14.20
2018-09-19T02:28:33.574Z,13.20
2018-09-19T02:31:01.921Z,12.77
2018-09-19T02:33:30.403Z,14.40
2018-09-19T02:35:58.779Z,16.97
2018-09-19T02:38:27.148Z,11.97
2018-09-19T02:40:55.543Z,12.43
2018-09-19T02:43:23.921Z,12.77
2018-09-19T02:45:52.376Z,13.47
2018-09-19T02:48:20.746Z,10.67
2018-09-19T02:50:49.147Z,11.67
2018-09-19T02:53:17.525Z,12.67
2018-09-19T02:55:45.903Z,10.93
2018-09-19T02:58:14.325Z,12.13
2018-09-19T03:00:42.801Z,10.57
2018-09-19T03:03:11.182Z,12.63
2018-09-19T03:05:39.566Z,9.03
2018-09-19T03:08:07.964Z,15.43
2018-09-19T03:10:36.331Z,13.57
2018-09-19T03:13:04.708Z,10.27
2018-09-19T03:15:33.090Z,9.70
2018-09-19T03:18:01.475Z,10.70
2018-09-19T03:20:29.849Z,11.80
2018-09-19T03:22:58.230Z,11.53
2018-09-19T03:25:26.604Z,10.33
2018-09-19T03:27:55.086Z,9.07
2018-09-19T03:30:23.450Z,10.33
2018-09-19T03:32:51.838Z,8.90
2018-09-19T03:35:20.443Z,11.97
2018-09-19T03:37:48.804Z,7.90
2018-09-19T03:40:17.206Z,7.63
2018-09-19T03:42:45.601Z,10.27
2018-09-19T03:45:13.982Z,10.67
2018-09-19T03:47:42.350Z,8.40
2018-09-19T03:50:10.786Z,9.47
2018-09-19T03:52:39.158Z,7.87
2018-09-19T03:55:07.550Z,8.33
2018-09-19T03:57:35.946Z,7.73
2018-09-19T04:00:04.351Z,9.93
2018-09-19T04:02:32.758Z,8.27
2018-09-19T04:05:01.127Z,9.50
2018-09-19T04:07:29.506Z,9.30
2018-09-19T04:09:57.922Z,8.70
2018-09-19T04:12:26.327Z,9.43
2018-09-19T04:14:54.687Z,8.20
2018-09-19T04:17:23.098Z,6.27
2018-09-19T04:19:51.464Z,8.03
2018-09-19T04:22:19.848Z,7.07
2018-09-19T04:24:48.221Z,9.57
2018-09-19T04:27:16.693Z,9.00
2018-09-19T04:29:45.078Z,10.13
2018-09-19T04:32:13.560Z,6.97
2018-09-19T04:34:41.888Z,13.30
2018-09-19T04:37:10.315Z,9.47
2018-09-19T04:39:38.719Z,9.87
2018-09-19T04:42:07.616Z,8.83
2018-09-19T04:44:35.993Z,8.43
2018-09-19T04:47:05.640Z,12.00
2018-09-19T04:49:34.065Z,13.13
2018-09-19T04:52:02.466Z,10.67
2018-09-19T04:54:30.857Z,9.67
2018-09-19T04:56:59.228Z,10.83
2018-09-19T04:59:27.687Z,12.50
2018-09-19T05:01:56.192Z,12.53
2018-09-19T05:04:24.736Z,11.97
2018-09-19T05:06:53.179Z,12.87
2018-09-19T05:09:21.559Z,11.37
2018-09-19T05:11:49.966Z,12.50
2018-09-19T05:14:18.359Z,10.80
2018-09-19T05:16:46.883Z,10.80
2018-09-19T05:19:15.265Z,9.53
2018-09-19T05:21:43.644Z,12.37
2018-09-19T05:24:12.029Z,10.33
2018-09-19T05:26:40.423Z,13.27
2018-09-19T05:29:08.954Z,13.00
2018-09-19T05:31:37.357Z,9.13
2018-09-19T05:34:05.743Z,10.60
2018-09-19T05:36:34.178Z,10.53
2018-09-19T05:39:02.611Z,12.13
2018-09-19T05:41:31.064Z,11.13
2018-09-19T05:43:59.450Z,11.20
2018-09-19T05:46:27.904Z,13.53
2018-09-19T05:48:56.554Z,15.17
2018-09-19T05:51:25.023Z,12.10
2018-09-19T05:53:53.487Z,13.70
2018-09-19T05:56:21.880Z,12.53
2018-09-19T05:58:50.263Z,15.57
2018-09-19T06:01:18.643Z,14.37
2018-09-19T06:03:47.126Z,12.93
2018-09-19T06:06:15.544Z,12.33
2018-09-19T06:08:43.922Z,12.47
2018-09-19T06:11:12.303Z,14.23
2018-09-19T06:13:40.944Z,9.77
2018-09-19T06:16:09.358Z,10.07
2018-09-19T06:18:37.734Z,12.10
2018-09-19T06:21:06.044Z,14.00
2018-09-19T06:23:34.580Z,11.00
2018-09-19T06:26:02.826Z,15.67
2018-09-19T06:28:31.197Z,13.17
2018-09-19T06:30:59.687Z,9.17
2018-09-19T06:33:28.107Z,14.27
2018-09-19T06:35:56.451Z,10.87
2018-09-19T06:38:24.842Z,11.93
2018-09-19T06:40:53.414Z,10.07
2018-09-19T06:43:21.751Z,15.13
2018-09-19T06:45:50.345Z,20.70
2018-09-19T06:48:18.843Z,52.07
2018-09-19T06:50:47.244Z,47.03
2018-09-19T06:53:15.758Z,39.20
2018-09-19T06:55:44.171Z,41.03
2018-09-19T06:58:12.692Z,32.43
2018-09-19T07:00:41.100Z,33.67
2018-09-19T07:03:09.498Z,36.73
2018-09-19T07:05:37.920Z,36.07
2018-09-19T07:08:06.409Z,32.30
2018-09-19T07:10:34.905Z,36.67
2018-09-19T07:13:03.299Z,130.27
2018-09-19T07:15:31.703Z,71.10
2018-09-19T07:18:00.116Z,63.50
2018-09-19T07:20:29.271Z,58.70
2018-09-19T07:22:58.624Z,58.80
2018-09-19T07:25:27.108Z,56.80
2018-09-19T07:27:55.531Z,54.93
2018-09-19T07:30:24.053Z,53.00
2018-09-19T07:32:52.455Z,52.07
2018-09-19T07:35:20.830Z,77.70
2018-09-19T07:37:49.226Z,81.43
2018-09-19T07:40:17.661Z,73.03
2018-09-19T07:42:45.993Z,66.93
2018-09-19T07:45:14.379Z,61.43
2018-09-19T07:47:42.792Z,62.83
2018-09-19T07:50:11.199Z,60.57
2018-09-19T07:52:39.610Z,59.97
2018-09-19T07:55:08.185Z,58.43
2018-09-19T07:57:36.691Z,95.57
2018-09-19T08:00:05.245Z,68.50
2018-09-19T08:02:33.672Z,70.47
2018-09-19T08:05:02.078Z,71.53
2018-09-19T08:07:30.439Z,76.57
2018-09-19T08:09:58.950Z,66.13
2018-09-19T08:12:27.348Z,62.63
2018-09-19T08:14:55.718Z,61.77
2018-09-19T08:17:24.660Z,56.27
2018-09-19T08:19:53.047Z,51.93
2018-09-19T08:22:21.519Z,47.27
2018-09-19T08:24:50.005Z,46.00
2018-09-19T08:27:18.379Z,42.50
2018-09-19T08:29:46.920Z,41.73
2018-09-19T08:32:15.329Z,40.03
2018-09-19T08:34:43.809Z,47.37
2018-09-19T08:37:12.666Z,45.57
2018-09-19T08:39:41.070Z,54.83
2018-09-19T08:42:09.476Z,49.57
2018-09-19T08:44:37.869Z,42.07
2018-09-19T08:47:06.446Z,39.10
2018-09-19T08:49:34.843Z,43.57
2018-09-19T08:52:03.280Z,39.40
2018-09-19T08:54:31.755Z,38.33
2018-09-19T08:57:00.206Z,38.73
2018-09-19T08:59:28.643Z,36.00
2018-09-19T09:01:57.010Z,40.40
2018-09-19T09:04:25.430Z,44.47
2018-09-19T09:06:53.798Z,38.53
2018-09-19T09:09:22.268Z,38.60
2018-09-19T09:11:50.718Z,36.03
2018-09-19T09:14:19.366Z,36.73
2018-09-19T09:16:47.898Z,35.07
2018-09-19T09:19:16.287Z,34.00
2018-09-19T09:21:44.650Z,34.90
2018-09-19T09:24:13.052Z,29.07
2018-09-19T09:26:41.550Z,30.43
2018-09-19T09:29:09.915Z,32.17
2018-09-19T09:31:38.325Z,30.40
2018-09-19T09:34:06.814Z,34.80
2018-09-19T09:36:35.231Z,30.70
2018-09-19T09:39:04.580Z,27.97
2018-09-19T09:41:33.075Z,28.63
2018-09-19T09:44:01.480Z,33.50
2018-09-19T09:46:30.247Z,27.50
2018-09-19T09:48:58.660Z,19.83
2018-09-19T09:51:27.091Z,19.93
2018-09-19T09:53:55.467Z,23.07
2018-09-19T09:56:23.860Z,26.87
2018-09-19T09:58:52.241Z,24.73
2018-09-19T10:01:20.672Z,24.10
2018-09-19T10:03:49.061Z,27.30
2018-09-19T10:06:17.470Z,22.07
2018-09-19T10:08:45.830Z,24.10
2018-09-19T10:11:14.187Z,24.63
2018-09-19T10:13:42.623Z,19.00
2018-09-19T10:16:11.286Z,21.40
2018-09-19T10:18:39.676Z,20.00
2018-09-19T10:21:08.119Z,20.37
2018-09-19T10:23:36.640Z,17.33
2018-09-19T10:26:05.021Z,21.43
2018-09-19T10:28:33.588Z,20.03
2018-09-19T10:31:02.028Z,19.27
2018-09-19T10:33:30.406Z,17.43
2018-09-19T10:35:58.779Z,17.47
2018-09-19T10:38:27.269Z,18.10
2018-09-19T10:40:55.708Z,16.07
2018-09-19T10:43:24.114Z,15.83
2018-09-19T10:45:52.489Z,13.70
2018-09-19T10:48:20.883Z,14.87
2018-09-19T10:50:49.296Z,14.47
2018-09-19T10:53:17.643Z,13.60
2018-09-19T10:55:46.026Z,14.30
2018-09-19T10:58:14.406Z,12.70
2018-09-19T11:00:42.829Z,12.40
2018-09-19T11:03:11.271Z,16.23
2018-09-19T11:05:39.679Z,15.97
2018-09-19T11:08:08.127Z,26.13
2018-09-19T11:10:36.522Z,37.90
2018-09-19T11:13:04.886Z,36.57
2018-09-19T11:15:33.396Z,33.63
2018-09-19T11:18:01.779Z,37.20
2018-09-19T11:20:30.164Z,31.83
2018-09-19T11:22:58.615Z,31.17
2018-09-19T11:25:26.979Z,28.90
2018-09-19T11:27:55.362Z,28.23
2018-09-19T11:30:23.728Z,25.73
2018-09-19T11:32:52.102Z,25.33
2018-09-19T11:35:20.483Z,26.30
2018-09-19T11:37:48.863Z,23.97
2018-09-19T11:40:17.238Z,23.90
2018-09-19T11:42:45.635Z,26.57
2018-09-19T11:45:14.197Z,25.47
2018-09-19T11:47:42.586Z,24.30
2018-09-19T11:50:11.132Z,25.37
2018-09-19T11:52:39.702Z,36.57
2018-09-19T11:55:08.137Z,38.73
2018-09-19T11:57:36.663Z,53.23
2018-09-19T12:00:05.411Z,49.67
2018-09-19T12:02:33.783Z,49.80
2018-09-19T12:05:02.366Z,45.23
2018-09-19T12:07:31.625Z,42.70
2018-09-19T12:10:00.111Z,40.57
2018-09-19T12:12:28.486Z,40.10
2018-09-19T12:14:56.881Z,73.10
2018-09-19T12:17:25.271Z,84.37
2018-09-19T12:19:53.659Z,73.37
2018-09-19T12:22:22.033Z,69.47
2018-09-19T12:24:50.543Z,66.60
2018-09-19T12:27:19.079Z,62.23
2018-09-19T12:29:47.581Z,59.17
2018-09-19T12:32:16.243Z,55.70
2018-09-19T12:34:44.621Z,54.33
2018-09-19T12:37:13.010Z,54.37
2018-09-19T12:39:41.384Z,51.40
2018-09-19T12:42:09.840Z,43.70
2018-09-19T12:44:38.224Z,48.23
2018-09-19T12:47:06.667Z,45.10
2018-09-19T12:49:35.287Z,42.23
2018-09-19T12:52:03.692Z,45.03
2018-09-19T12:54:32.114Z,38.40
2018-09-19T12:57:00.574Z,39.43
2018-09-19T12:59:28.944Z,38.17
2018-09-19T13:01:57.386Z,33.07
2018-09-19T13:04:25.872Z,36.23
2018-09-19T13:06:54.255Z,35.97
2018-09-19T13:09:22.722Z,32.20
2018-09-19T13:11:51.086Z,30.43
2018-09-19T13:14:19.575Z,33.60
2018-09-19T13:16:47.967Z,29.93
2018-09-19T13:19:16.336Z,32.23
2018-09-19T13:21:44.800Z,30.87
2018-09-19T13:24:13.196Z,20.23
2018-09-19T13:26:41.582Z,17.57
2018-09-19T13:29:09.978Z,17.10
2018-09-19T13:31:38.359Z,20.87
2018-09-19T13:34:06.824Z,19.53
2018-09-19T13:36:35.185Z,19.63
2018-09-19T13:39:05.896Z,17.60
2018-09-19T13:41:34.621Z,17.30
2018-09-19T13:44:03.025Z,17.73
2018-09-19T13:46:32.280Z,20.20
2018-09-19T13:49:04.575Z,18.23
2018-09-19T13:51:33.067Z,25.13
2018-09-19T13:54:03.155Z,36.20
2018-09-19T13:56:31.615Z,44.47
2018-09-19T13:59:00.132Z,37.90
2018-09-19T14:01:28.474Z,38.37
2018-09-19T14:03:56.902Z,35.33
2018-09-19T14:06:25.697Z,33.77
2018-09-19T14:08:54.139Z,32.83
2018-09-19T14:11:22.607Z,35.93
2018-09-19T14:13:51.031Z,37.87
2018-09-19T14:16:19.442Z,31.90
2018-09-19T14:18:47.979Z,28.60
2018-09-19T14:21:16.484Z,27.83
2018-09-19T14:23:45.000Z,28.80
2018-09-19T14:26:13.398Z,28.53
2018-09-19T14:28:41.851Z,29.43
2018-09-19T14:31:10.240Z,31.03
2018-09-19T14:33:38.615Z,32.20
2018-09-19T14:36:07.051Z,28.13
2018-09-19T14:38:35.474Z,29.10
2018-09-19T14:41:03.844Z,29.90
2018-09-19T14:43:32.221Z,29.20
2018-09-19T14:46:00.600Z,24.83
2018-09-19T14:48:29.022Z,24.67
2018-09-19T14:50:57.432Z,26.17
2018-09-19T14:53:25.820Z,36.27
2018-09-19T14:55:55.250Z,26.83
2018-09-19T14:58:23.698Z,24.07
2018-09-19T15:00:52.051Z,34.47
2018-09-19T15:03:20.518Z,25.23
2018-09-19T15:05:49.166Z,27.03
2018-09-19T15:08:17.567Z,30.50
2018-09-19T15:10:45.962Z,25.67
2018-09-19T15:13:14.348Z,25.77
2018-09-19T15:15:43.092Z,23.03
2018-09-19T15:18:11.479Z,24.33
2018-09-19T15:20:39.863Z,23.77
2018-09-19T15:23:08.358Z,22.67
2018-09-19T15:25:36.728Z,24.23
2018-09-19T15:28:05.119Z,20.70
2018-09-19T15:30:33.483Z,33.67
2018-09-19T15:33:01.892Z,39.73
2018-09-19T15:35:30.284Z,30.50
2018-09-19T15:37:58.675Z,27.77
2018-09-19T15:40:27.076Z,31.13
2018-09-19T15:42:55.461Z,26.73
2018-09-19T15:45:23.845Z,26.50
2018-09-19T15:47:52.208Z,25.67
2018-09-19T15:50:20.760Z,24.37
2018-09-19T15:52:49.182Z,23.00
2018-09-19T15:55:17.636Z,28.63
2018-09-19T15:57:46.038Z,23.23
2018-09-19T16:00:15.288Z,22.87
2018-09-19T16:02:43.709Z,22.33
2018-09-19T16:05:12.091Z,22.13
2018-09-19T16:07:40.534Z,19.67
2018-09-19T16:10:09.139Z,18.93
2018-09-19T16:12:37.644Z,20.20
2018-09-19T16:15:06.015Z,20.60
2018-09-19T16:17:34.405Z,18.83
2018-09-19T16:20:02.866Z,17.00
2018-09-19T16:22:31.248Z,17.50
2018-09-19T16:24:59.629Z,20.07
2018-09-19T16:27:28.039Z,18.10
2018-09-19T16:29:56.427Z,15.00
2018-09-19T16:32:24.895Z,14.47
2018-09-19T16:34:53.307Z,15.70
2018-09-19T16:37:21.751Z,16.13
2018-09-19T16:39:50.165Z,15.23
2018-09-19T16:42:18.553Z,18.07
2018-09-19T16:44:46.947Z,13.90
2018-09-19T16:47:15.379Z,14.17
2018-09-19T16:49:43.800Z,11.63
2018-09-19T16:52:12.178Z,12.77
2018-09-19T16:54:40.572Z,15.37
2018-09-19T16:57:09.054Z,14.70
2018-09-19T16:59:37.444Z,11.50
2018-09-19T17:02:05.855Z,12.43
2018-09-19T17:04:34.218Z,10.87
2018-09-19T17:07:02.603Z,11.83
2018-09-19T17:09:31.027Z,12.93
2018-09-19T17:12:00.106Z,10.10
2018-09-19T17:14:28.492Z,14.17
2018-09-19T17:16:56.859Z,14.10
2018-09-19T17:19:25.256Z,71.70
2018-09-19T17:21:53.775Z,26.43
2018-09-19T17:24:22.156Z,21.43
2018-09-19T17:26:50.524Z,17.70
2018-09-19T17:29:18.916Z,12.37
2018-09-19T17:31:47.345Z,16.47
2018-09-19T17:34:15.775Z,13.83
2018-09-19T17:36:44.182Z,14.07
2018-09-19T17:39:13.435Z,12.83
2018-09-19T17:41:41.864Z,14.03
2018-09-19T17:44:10.270Z,224.03
2018-09-19T17:46:39.719Z,381.53
2018-09-19T17:49:08.727Z,73.90
2018-09-19T17:51:37.166Z,76.50
2018-09-19T17:54:07.227Z,170.37
2018-09-19T17:56:36.095Z,160.63
2018-09-19T17:59:04.637Z,144.00
2018-09-19T18:01:33.061Z,128.37
2018-09-19T18:04:01.648Z,108.40
2018-09-19T18:06:30.054Z,79.77
2018-09-19T18:08:58.600Z,79.73
2018-09-19T18:11:27.051Z,72.67
2018-09-19T18:13:55.467Z,66.10
2018-09-19T18:16:23.972Z,61.63
2018-09-19T18:18:52.361Z,58.70
2018-09-19T18:21:21.124Z,58.20
2018-09-19T18:23:49.516Z,47.43
2018-09-19T18:26:17.905Z,52.40
2018-09-19T18:28:46.291Z,55.00
2018-09-19T18:31:14.732Z,56.00
2018-09-19T18:33:43.108Z,56.13
2018-09-19T18:36:11.600Z,52.43
2018-09-19T18:38:40.269Z,50.47
2018-09-19T18:41:08.717Z,76.27
2018-09-19T18:43:37.118Z,105.30
2018-09-19T18:46:05.622Z,83.60
2018-09-19T18:48:34.087Z,93.90
2018-09-19T18:51:03.597Z,106.53
2018-09-19T18:53:32.165Z,73.27
2018-09-19T18:56:00.608Z,63.27
2018-09-19T18:58:29.102Z,63.00
2018-09-19T19:00:57.515Z,61.50
2018-09-19T19:03:26.227Z,57.33
2018-09-19T19:05:54.648Z,60.20
2018-09-19T19:08:23.127Z,56.33
2018-09-19T19:10:51.640Z,52.90
2018-09-19T19:13:20.097Z,49.27
2018-09-19T19:15:48.573Z,53.33
2018-09-19T19:18:17.187Z,67.30
2018-09-19T19:20:45.627Z,61.17
2018-09-19T19:23:14.106Z,62.60
2018-09-19T19:25:42.804Z,73.47
2018-09-19T19:28:11.179Z,69.03
2018-09-19T19:30:39.705Z,63.07
2018-09-19T19:33:08.061Z,58.80
2018-09-19T19:35:36.445Z,55.73
2018-09-19T19:38:07.331Z,55.33
2018-09-19T19:40:35.711Z,49.60
2018-09-19T19:43:04.079Z,48.80
2018-09-19T19:45:32.534Z,61.17
2018-09-19T19:48:05.149Z,57.87
2018-09-19T19:50:36.771Z,74.13
2018-09-19T19:53:05.243Z,96.60
2018-09-19T19:55:33.697Z,104.70
2018-09-19T19:58:02.093Z,92.70
2018-09-19T20:00:30.456Z,60.83
2018-09-19T20:02:58.923Z,59.83
2018-09-19T20:05:27.303Z,63.43
2018-09-19T20:07:55.688Z,60.47
2018-09-19T20:10:24.076Z,57.20
2018-09-19T20:12:52.675Z,52.47
2018-09-19T20:15:21.110Z,47.10
2018-09-19T20:17:49.516Z,47.87
2018-09-19T20:20:17.894Z,48.07
2018-09-19T20:22:46.407Z,67.67
2018-09-19T20:25:14.967Z,145.70
2018-09-19T20:27:43.353Z,110.07
2018-09-19T20:30:11.774Z,106.00
2018-09-19T20:32:40.185Z,108.73
2018-09-19T20:35:08.595Z,65.57
2018-09-19T20:37:37.089Z,68.27
2018-09-19T20:40:05.656Z,64.73
2018-09-19T20:42:34.019Z,68.50
2018-09-19T20:45:02.410Z,79.17
2018-09-19T20:47:30.806Z,80.47
2018-09-19T20:49:59.259Z,155.03
2018-09-19T20:52:27.634Z,138.37
2018-09-19T20:54:56.017Z,89.57
2018-09-19T20:57:24.467Z,107.57
2018-09-19T20:59:52.857Z,101.23
2018-09-19T21:02:21.249Z,75.73
2018-09-19T21:04:49.807Z,81.30
2018-09-19T21:07:18.115Z,65.63
2018-09-19T21:09:46.736Z,61.80
2018-09-19T21:12:15.136Z,76.23
2018-09-19T21:14:43.503Z,92.47
2018-09-19T21:17:11.903Z,91.47
2018-09-19T21:19:40.429Z,76.77
2018-09-19T21:22:08.928Z,77.43
2018-09-19T21:24:37.267Z,70.20
2018-09-19T21:27:05.661Z,83.57
2018-09-19T21:29:34.196Z,77.77
2018-09-19T21:32:02.575Z,73.67
2018-09-19T21:34:30.956Z,62.87
2018-09-19T21:36:59.319Z,57.47
2018-09-19T21:39:27.745Z,56.23
2018-09-19T21:41:56.138Z,49.43
2018-09-19T21:44:24.524Z,49.23
2018-09-19T21:46:52.891Z,49.80
2018-09-19T21:49:21.311Z,48.60
2018-09-19T21:51:49.792Z,49.63
2018-09-19T21:54:18.354Z,45.43
2018-09-19T21:56:46.723Z,49.10
2018-09-19T21:59:15.123Z,101.67
2018-09-19T22:01:43.811Z,94.80
2018-09-19T22:04:12.325Z,78.77
2018-09-19T22:06:41.087Z,51.87
2018-09-19T22:09:11.571Z,41.80
2018-09-19T22:11:40.402Z,40.20
2018-09-19T22:14:08.974Z,63.50
2018-09-19T22:16:37.353Z,61.03
2018-09-19T22:19:05.776Z,65.77
2018-09-19T22:21:34.190Z,47.00
2018-09-19T22:24:02.571Z,42.20
2018-09-19T22:26:30.946Z,46.90
2018-09-19T22:28:59.524Z,48.80
2018-09-19T22:31:28.143Z,45.77
2018-09-19T22:33:56.617Z,45.20
2018-09-19T22:36:25.055Z,58.70
2018-09-19T22:38:53.580Z,61.90
2018-09-19T22:41:22.121Z,73.67
2018-09-19T22:43:50.759Z,125.80
2018-09-19T22:46:19.190Z,86.07
2018-09-19T22:48:47.926Z,57.03
2018-09-19T22:51:16.286Z,54.80
2018-09-19T22:53:44.826Z,57.10
2018-09-19T22:56:13.259Z,54.30
2018-09-19T22:58:41.610Z,54.30
